sensor_id;sensor_type;location;lat;lon;timestamp;temperature;humidity
35593;DHT22;64447;52.140;5.602;2024-02-23T00:00:39;5.90;99.90
35593;DHT22;64447;52.140;5.602;2024-02-23T00:03:05;5.70;99.90
35593;DHT22;64447;52.140;5.602;2024-02-23T00:05:30;5.80;99.90
35593;DHT22;64447;52.140;5.602;2024-02-23T00:07:57;6.00;99.90
35593;DHT22;64447;52.140;5.602;2024-02-23T00:10:22;6.10;99.90
35593;DHT22;64447;52.140;5.602;2024-02-23T00:12:48;5.90;99.90
35593;DHT22;64447;52.140;5.602;2024-02-23T00:15:14;6.10;99.90
35593;DHT22;64447;52.140;5.602;2024-02-23T00:17:39;6.10;99.90
35593;DHT22;64447;52.140;5.602;2024-02-23T00:20:08;6.20;99.90
35593;DHT22;64447;52.140;5.602;2024-02-23T00:22:34;6.30;99.90
35593;DHT22;64447;52.140;5.602;2024-02-23T00:25:00;6.30;99.90
35593;DHT22;64447;52.140;5.602;2024-02-23T00:27:26;6.50;99.90
35593;DHT22;64447;52.140;5.602;2024-02-23T00:29:51;6.40;99.90
35593;DHT22;64447;52.140;5.602;2024-02-23T00:32:17;6.40;99.90
35593;DHT22;64447;52.140;5.602;2024-02-23T00:34:43;6.20;99.90
35593;DHT22;64447;52.140;5.602;2024-02-23T00:37:08;6.40;99.90
35593;DHT22;64447;52.140;5.602;2024-02-23T00:39:34;6.40;99.90
35593;DHT22;64447;52.140;5.602;2024-02-23T00:42:00;6.40;99.90
35593;DHT22;64447;52.140;5.602;2024-02-23T00:44:25;6.60;99.90
35593;DHT22;64447;52.140;5.602;2024-02-23T00:46:51;6.50;99.90
35593;DHT22;64447;52.140;5.602;2024-02-23T00:49:17;6.60;99.90
35593;DHT22;64447;52.140;5.602;2024-02-23T00:51:43;6.50;99.90
35593;DHT22;64447;52.140;5.602;2024-02-23T00:54:08;6.50;99.90
35593;DHT22;64447;52.140;5.602;2024-02-23T00:56:34;6.60;99.90
35593;DHT22;64447;52.140;5.602;2024-02-23T00:59:00;6.40;99.90
35593;DHT22;64447;52.140;5.602;2024-02-23T01:01:26;7.20;99.90
35593;DHT22;64447;52.140;5.602;2024-02-23T01:03:54;6.40;99.90
35593;DHT22;64447;52.140;5.602;2024-02-23T01:06:20;6.60;99.90
35593;DHT22;64447;52.140;5.602;2024-02-23T01:08:46;6.50;99.90
35593;DHT22;64447;52.140;5.602;2024-02-23T01:11:11;6.30;99.90
35593;DHT22;64447;52.140;5.602;2024-02-23T01:13:37;6.20;99.90
35593;DHT22;64447;52.140;5.602;2024-02-23T01:16:03;6.30;99.90
35593;DHT22;64447;52.140;5.602;2024-02-23T01:18:29;6.20;99.90
35593;DHT22;64447;52.140;5.602;2024-02-23T01:20:56;6.60;99.90
35593;DHT22;64447;52.140;5.602;2024-02-23T01:23:23;6.40;99.90
35593;DHT22;64447;52.140;5.602;2024-02-23T01:25:48;6.10;99.90
35593;DHT22;64447;52.140;5.602;2024-02-23T01:28:14;6.50;99.90
35593;DHT22;64447;52.140;5.602;2024-02-23T01:30:40;6.10;99.90
35593;DHT22;64447;52.140;5.602;2024-02-23T01:33:05;5.80;99.90
35593;DHT22;64447;52.140;5.602;2024-02-23T01:35:31;5.90;99.90
35593;DHT22;64447;52.140;5.602;2024-02-23T01:37:56;5.80;99.90
35593;DHT22;64447;52.140;5.602;2024-02-23T01:40:22;5.60;99.90
35593;DHT22;64447;52.140;5.602;2024-02-23T01:42:48;6.00;99.90
35593;DHT22;64447;52.140;5.602;2024-02-23T01:45:13;5.60;99.90
35593;DHT22;64447;52.140;5.602;2024-02-23T01:47:39;5.60;99.90
35593;DHT22;64447;52.140;5.602;2024-02-23T01:50:05;5.80;99.90
35593;DHT22;64447;52.140;5.602;2024-02-23T01:52:33;5.90;99.90
35593;DHT22;64447;52.140;5.602;2024-02-23T01:54:59;6.40;99.90
35593;DHT22;64447;52.140;5.602;2024-02-23T01:57:26;5.80;99.90
35593;DHT22;64447;52.140;5.602;2024-02-23T01:59:53;6.50;99.90
35593;DHT22;64447;52.140;5.602;2024-02-23T02:02:19;6.00;99.90
35593;DHT22;64447;52.140;5.602;2024-02-23T02:04:44;6.20;99.90
35593;DHT22;64447;52.140;5.602;2024-02-23T02:07:10;6.20;99.90
35593;DHT22;64447;52.140;5.602;2024-02-23T02:09:36;6.20;99.90
35593;DHT22;64447;52.140;5.602;2024-02-23T02:12:01;6.10;99.90
35593;DHT22;64447;52.140;5.602;2024-02-23T02:14:27;6.00;99.90
35593;DHT22;64447;52.140;5.602;2024-02-23T02:16:55;6.30;99.90
35593;DHT22;64447;52.140;5.602;2024-02-23T02:19:21;6.40;99.90
35593;DHT22;64447;52.140;5.602;2024-02-23T02:21:46;6.00;99.90
35593;DHT22;64447;52.140;5.602;2024-02-23T02:24:12;6.00;99.90
35593;DHT22;64447;52.140;5.602;2024-02-23T02:26:38;6.30;99.90
35593;DHT22;64447;52.140;5.602;2024-02-23T02:29:03;6.00;99.90
35593;DHT22;64447;52.140;5.602;2024-02-23T02:31:29;6.00;99.90
35593;DHT22;64447;52.140;5.602;2024-02-23T02:33:55;6.00;99.90
35593;DHT22;64447;52.140;5.602;2024-02-23T02:36:20;6.00;99.90
35593;DHT22;64447;52.140;5.602;2024-02-23T02:38:46;6.30;99.90
35593;DHT22;64447;52.140;5.602;2024-02-23T02:41:11;5.90;99.90
35593;DHT22;64447;52.140;5.602;2024-02-23T02:43:37;6.00;99.90
35593;DHT22;64447;52.140;5.602;2024-02-23T02:46:03;6.20;99.90
35593;DHT22;64447;52.140;5.602;2024-02-23T02:48:28;6.20;99.90
35593;DHT22;64447;52.140;5.602;2024-02-23T02:50:54;6.10;99.90
35593;DHT22;64447;52.140;5.602;2024-02-23T02:53:20;5.80;99.90
35593;DHT22;64447;52.140;5.602;2024-02-23T02:55:46;6.10;99.90
35593;DHT22;64447;52.140;5.602;2024-02-23T02:58:12;6.00;99.90
35593;DHT22;64447;52.140;5.602;2024-02-23T03:00:40;5.90;99.90
35593;DHT22;64447;52.140;5.602;2024-02-23T03:03:06;5.70;99.90
35593;DHT22;64447;52.140;5.602;2024-02-23T03:05:32;6.30;99.90
35593;DHT22;64447;52.140;5.602;2024-02-23T03:07:57;6.00;99.90
35593;DHT22;64447;52.140;5.602;2024-02-23T03:10:23;5.80;99.90
35593;DHT22;64447;52.140;5.602;2024-02-23T03:12:49;5.80;99.90
35593;DHT22;64447;52.140;5.602;2024-02-23T03:15:14;5.90;99.90
35593;DHT22;64447;52.140;5.602;2024-02-23T03:17:40;5.90;99.90
35593;DHT22;64447;52.140;5.602;2024-02-23T03:20:06;6.10;99.90
35593;DHT22;64447;52.140;5.602;2024-02-23T03:22:39;5.80;99.90
35593;DHT22;64447;52.140;5.602;2024-02-23T03:25:05;5.70;99.90
35593;DHT22;64447;52.140;5.602;2024-02-23T03:27:34;5.70;99.90
35593;DHT22;64447;52.140;5.602;2024-02-23T03:30:03;5.80;99.90
35593;DHT22;64447;52.140;5.602;2024-02-23T03:32:30;5.80;99.90
35593;DHT22;64447;52.140;5.602;2024-02-23T03:35:06;5.70;99.90
35593;DHT22;64447;52.140;5.602;2024-02-23T03:37:32;5.70;99.90
35593;DHT22;64447;52.140;5.602;2024-02-23T03:39:58;5.70;99.90
35593;DHT22;64447;52.140;5.602;2024-02-23T03:42:25;6.00;99.90
35593;DHT22;64447;52.140;5.602;2024-02-23T03:44:51;5.80;99.90
35593;DHT22;64447;52.140;5.602;2024-02-23T03:47:16;6.00;99.90
35593;DHT22;64447;52.140;5.602;2024-02-23T03:49:42;5.80;99.90
35593;DHT22;64447;52.140;5.602;2024-02-23T03:52:07;6.00;99.90
35593;DHT22;64447;52.140;5.602;2024-02-23T03:54:33;5.80;99.90
35593;DHT22;64447;52.140;5.602;2024-02-23T03:56:59;5.80;99.90
35593;DHT22;64447;52.140;5.602;2024-02-23T03:59:24;5.60;99.90
35593;DHT22;64447;52.140;5.602;2024-02-23T04:01:50;6.30;99.90
35593;DHT22;64447;52.140;5.602;2024-02-23T04:04:16;5.80;99.90
35593;DHT22;64447;52.140;5.602;2024-02-23T04:06:41;5.90;99.90
35593;DHT22;64447;52.140;5.602;2024-02-23T04:09:07;5.90;99.90
35593;DHT22;64447;52.140;5.602;2024-02-23T04:11:34;5.80;99.90
35593;DHT22;64447;52.140;5.602;2024-02-23T04:14:00;5.80;99.90
35593;DHT22;64447;52.140;5.602;2024-02-23T04:16:26;5.70;99.90
35593;DHT22;64447;52.140;5.602;2024-02-23T04:18:53;5.70;99.90
35593;DHT22;64447;52.140;5.602;2024-02-23T04:21:19;5.90;99.90
35593;DHT22;64447;52.140;5.602;2024-02-23T04:23:45;5.90;99.90
35593;DHT22;64447;52.140;5.602;2024-02-23T04:26:10;5.70;99.90
35593;DHT22;64447;52.140;5.602;2024-02-23T04:28:40;5.80;99.90
35593;DHT22;64447;52.140;5.602;2024-02-23T04:31:06;5.80;99.90
35593;DHT22;64447;52.140;5.602;2024-02-23T04:33:31;6.00;99.90
35593;DHT22;64447;52.140;5.602;2024-02-23T04:35:58;5.80;99.90
35593;DHT22;64447;52.140;5.602;2024-02-23T04:38:24;5.80;99.90
35593;DHT22;64447;52.140;5.602;2024-02-23T04:40:49;6.10;99.90
35593;DHT22;64447;52.140;5.602;2024-02-23T04:43:15;5.80;99.90
35593;DHT22;64447;52.140;5.602;2024-02-23T04:45:41;5.80;99.90
35593;DHT22;64447;52.140;5.602;2024-02-23T04:48:07;5.80;99.90
35593;DHT22;64447;52.140;5.602;2024-02-23T04:50:32;5.80;99.90
35593;DHT22;64447;52.140;5.602;2024-02-23T04:52:58;5.80;99.90
35593;DHT22;64447;52.140;5.602;2024-02-23T04:55:24;6.20;99.90
35593;DHT22;64447;52.140;5.602;2024-02-23T04:57:49;6.00;99.90
35593;DHT22;64447;52.140;5.602;2024-02-23T05:00:15;5.90;99.90
35593;DHT22;64447;52.140;5.602;2024-02-23T05:02:41;5.90;99.90
35593;DHT22;64447;52.140;5.602;2024-02-23T05:05:07;6.10;99.90
35593;DHT22;64447;52.140;5.602;2024-02-23T05:07:34;6.00;99.90
35593;DHT22;64447;52.140;5.602;2024-02-23T05:10:00;6.70;99.90
35593;DHT22;64447;52.140;5.602;2024-02-23T05:12:25;6.10;99.90
35593;DHT22;64447;52.140;5.602;2024-02-23T05:14:51;6.20;99.90
35593;DHT22;64447;52.140;5.602;2024-02-23T05:17:17;6.30;99.90
35593;DHT22;64447;52.140;5.602;2024-02-23T05:19:42;6.20;99.90
35593;DHT22;64447;52.140;5.602;2024-02-23T05:22:08;6.20;99.90
35593;DHT22;64447;52.140;5.602;2024-02-23T05:24:34;6.30;99.90
35593;DHT22;64447;52.140;5.602;2024-02-23T05:26:59;6.50;99.90
35593;DHT22;64447;52.140;5.602;2024-02-23T05:29:27;6.30;99.90
35593;DHT22;64447;52.140;5.602;2024-02-23T05:31:53;6.50;99.90
35593;DHT22;64447;52.140;5.602;2024-02-23T05:34:19;6.60;99.90
35593;DHT22;64447;52.140;5.602;2024-02-23T05:36:45;6.70;99.90
35593;DHT22;64447;52.140;5.602;2024-02-23T05:39:12;6.40;99.90
35593;DHT22;64447;52.140;5.602;2024-02-23T05:41:38;6.30;99.90
35593;DHT22;64447;52.140;5.602;2024-02-23T05:44:05;6.50;99.90
35593;DHT22;64447;52.140;5.602;2024-02-23T05:46:32;6.30;99.90
35593;DHT22;64447;52.140;5.602;2024-02-23T05:48:58;6.50;99.90
35593;DHT22;64447;52.140;5.602;2024-02-23T05:51:24;6.50;99.90
35593;DHT22;64447;52.140;5.602;2024-02-23T05:53:50;6.40;99.90
35593;DHT22;64447;52.140;5.602;2024-02-23T05:56:16;6.60;99.90
35593;DHT22;64447;52.140;5.602;2024-02-23T05:58:41;6.50;99.90
35593;DHT22;64447;52.140;5.602;2024-02-23T06:01:07;6.60;99.90
35593;DHT22;64447;52.140;5.602;2024-02-23T06:03:33;6.70;99.90
35593;DHT22;64447;52.140;5.602;2024-02-23T06:05:59;6.70;99.90
35593;DHT22;64447;52.140;5.602;2024-02-23T06:08:25;6.80;99.90
35593;DHT22;64447;52.140;5.602;2024-02-23T06:10:51;6.90;99.90
35593;DHT22;64447;52.140;5.602;2024-02-23T06:13:16;6.50;99.90
35593;DHT22;64447;52.140;5.602;2024-02-23T06:15:42;7.00;99.90
35593;DHT22;64447;52.140;5.602;2024-02-23T06:18:08;6.90;99.90
35593;DHT22;64447;52.140;5.602;2024-02-23T06:20:34;6.70;99.90
35593;DHT22;64447;52.140;5.602;2024-02-23T06:22:59;6.90;99.90
35593;DHT22;64447;52.140;5.602;2024-02-23T06:25:25;6.80;99.90
35593;DHT22;64447;52.140;5.602;2024-02-23T06:27:51;6.70;99.90
35593;DHT22;64447;52.140;5.602;2024-02-23T06:30:16;6.90;99.90
35593;DHT22;64447;52.140;5.602;2024-02-23T06:32:42;6.70;99.90
35593;DHT22;64447;52.140;5.602;2024-02-23T06:35:08;6.80;99.90
35593;DHT22;64447;52.140;5.602;2024-02-23T06:37:34;7.00;99.90
35593;DHT22;64447;52.140;5.602;2024-02-23T06:40:00;7.10;99.90
35593;DHT22;64447;52.140;5.602;2024-02-23T06:42:25;7.10;99.90
35593;DHT22;64447;52.140;5.602;2024-02-23T06:44:51;7.30;99.90
35593;DHT22;64447;52.140;5.602;2024-02-23T06:47:17;7.10;99.90
35593;DHT22;64447;52.140;5.602;2024-02-23T06:49:43;7.10;99.90
35593;DHT22;64447;52.140;5.602;2024-02-23T06:52:09;6.50;99.90
35593;DHT22;64447;52.140;5.602;2024-02-23T06:54:35;6.70;99.90
35593;DHT22;64447;52.140;5.602;2024-02-23T06:57:01;6.80;99.90
35593;DHT22;64447;52.140;5.602;2024-02-23T06:59:27;6.60;99.90
35593;DHT22;64447;52.140;5.602;2024-02-23T07:01:53;6.70;99.90
35593;DHT22;64447;52.140;5.602;2024-02-23T07:04:19;6.60;99.90
35593;DHT22;64447;52.140;5.602;2024-02-23T07:06:45;6.60;99.90
35593;DHT22;64447;52.140;5.602;2024-02-23T07:09:11;6.60;99.90
35593;DHT22;64447;52.140;5.602;2024-02-23T07:11:39;6.30;99.90
35593;DHT22;64447;52.140;5.602;2024-02-23T07:14:07;6.70;99.90
35593;DHT22;64447;52.140;5.602;2024-02-23T07:16:37;7.10;99.90
35593;DHT22;64447;52.140;5.602;2024-02-23T07:19:04;7.00;99.90
35593;DHT22;64447;52.140;5.602;2024-02-23T07:21:30;7.00;99.90
35593;DHT22;64447;52.140;5.602;2024-02-23T07:23:56;6.80;99.90
35593;DHT22;64447;52.140;5.602;2024-02-23T07:26:21;6.90;99.90
35593;DHT22;64447;52.140;5.602;2024-02-23T07:28:48;6.70;99.90
35593;DHT22;64447;52.140;5.602;2024-02-23T07:31:14;6.70;99.90
35593;DHT22;64447;52.140;5.602;2024-02-23T07:33:42;6.70;99.90
35593;DHT22;64447;52.140;5.602;2024-02-23T07:36:09;6.70;99.90
35593;DHT22;64447;52.140;5.602;2024-02-23T07:38:38;6.80;99.90
35593;DHT22;64447;52.140;5.602;2024-02-23T07:41:04;6.80;99.90
35593;DHT22;64447;52.140;5.602;2024-02-23T07:43:30;6.70;99.90
35593;DHT22;64447;52.140;5.602;2024-02-23T07:45:55;6.80;99.90
35593;DHT22;64447;52.140;5.602;2024-02-23T07:48:21;6.60;99.90
35593;DHT22;64447;52.140;5.602;2024-02-23T07:50:47;6.90;99.90
35593;DHT22;64447;52.140;5.602;2024-02-23T07:53:12;6.80;99.90
35593;DHT22;64447;52.140;5.602;2024-02-23T07:55:38;6.90;99.90
35593;DHT22;64447;52.140;5.602;2024-02-23T07:58:04;6.90;99.90
35593;DHT22;64447;52.140;5.602;2024-02-23T08:00:29;7.00;99.90
35593;DHT22;64447;52.140;5.602;2024-02-23T08:02:55;6.90;99.90
35593;DHT22;64447;52.140;5.602;2024-02-23T08:05:22;7.00;99.90
35593;DHT22;64447;52.140;5.602;2024-02-23T08:07:49;7.00;99.90
35593;DHT22;64447;52.140;5.602;2024-02-23T08:10:14;7.10;99.90
35593;DHT22;64447;52.140;5.602;2024-02-23T08:12:40;7.00;99.90
35593;DHT22;64447;52.140;5.602;2024-02-23T08:15:06;7.10;99.90
35593;DHT22;64447;52.140;5.602;2024-02-23T08:17:32;7.00;99.90
35593;DHT22;64447;52.140;5.602;2024-02-23T08:19:58;7.00;99.90
35593;DHT22;64447;52.140;5.602;2024-02-23T08:22:23;7.00;99.90
35593;DHT22;64447;52.140;5.602;2024-02-23T08:24:49;7.00;99.90
35593;DHT22;64447;52.140;5.602;2024-02-23T08:27:15;7.00;99.90
35593;DHT22;64447;52.140;5.602;2024-02-23T08:29:40;6.90;99.90
35593;DHT22;64447;52.140;5.602;2024-02-23T08:32:07;6.90;99.90
35593;DHT22;64447;52.140;5.602;2024-02-23T08:34:33;7.00;99.90
35593;DHT22;64447;52.140;5.602;2024-02-23T08:37:00;7.10;99.90
35593;DHT22;64447;52.140;5.602;2024-02-23T08:39:26;7.10;99.90
35593;DHT22;64447;52.140;5.602;2024-02-23T08:41:52;7.20;99.90
35593;DHT22;64447;52.140;5.602;2024-02-23T08:44:18;7.10;99.90
35593;DHT22;64447;52.140;5.602;2024-02-23T08:46:44;7.30;99.90
35593;DHT22;64447;52.140;5.602;2024-02-23T08:49:09;7.10;99.90
35593;DHT22;64447;52.140;5.602;2024-02-23T08:51:35;7.20;99.90
35593;DHT22;64447;52.140;5.602;2024-02-23T08:54:01;7.40;99.90
35593;DHT22;64447;52.140;5.602;2024-02-23T08:56:30;7.30;99.90
35593;DHT22;64447;52.140;5.602;2024-02-23T08:58:55;7.20;99.90
35593;DHT22;64447;52.140;5.602;2024-02-23T09:01:21;7.50;99.90
35593;DHT22;64447;52.140;5.602;2024-02-23T09:03:47;7.20;99.90
35593;DHT22;64447;52.140;5.602;2024-02-23T09:06:12;7.30;99.90
35593;DHT22;64447;52.140;5.602;2024-02-23T09:08:39;7.30;99.90
35593;DHT22;64447;52.140;5.602;2024-02-23T09:11:06;7.40;99.90
35593;DHT22;64447;52.140;5.602;2024-02-23T09:13:32;7.20;99.90
35593;DHT22;64447;52.140;5.602;2024-02-23T09:15:57;7.20;99.90
35593;DHT22;64447;52.140;5.602;2024-02-23T09:18:23;7.10;99.90
35593;DHT22;64447;52.140;5.602;2024-02-23T09:20:49;7.20;99.90
35593;DHT22;64447;52.140;5.602;2024-02-23T09:23:14;7.20;99.90
35593;DHT22;64447;52.140;5.602;2024-02-23T09:25:40;7.20;99.90
35593;DHT22;64447;52.140;5.602;2024-02-23T09:28:07;7.10;99.90
35593;DHT22;64447;52.140;5.602;2024-02-23T09:30:32;7.10;99.90
35593;DHT22;64447;52.140;5.602;2024-02-23T09:32:58;7.20;99.90
35593;DHT22;64447;52.140;5.602;2024-02-23T09:35:24;7.30;99.90
35593;DHT22;64447;52.140;5.602;2024-02-23T09:37:49;7.10;99.90
35593;DHT22;64447;52.140;5.602;2024-02-23T09:40:15;7.10;99.90
35593;DHT22;64447;52.140;5.602;2024-02-23T09:42:42;7.10;99.90
35593;DHT22;64447;52.140;5.602;2024-02-23T09:45:08;7.30;99.90
35593;DHT22;64447;52.140;5.602;2024-02-23T09:47:36;7.10;99.90
35593;DHT22;64447;52.140;5.602;2024-02-23T09:50:04;7.20;99.90
35593;DHT22;64447;52.140;5.602;2024-02-23T09:52:31;7.20;99.90
35593;DHT22;64447;52.140;5.602;2024-02-23T09:54:57;7.40;99.90
35593;DHT22;64447;52.140;5.602;2024-02-23T09:57:24;7.50;99.90
35593;DHT22;64447;52.140;5.602;2024-02-23T09:59:50;7.40;99.90
35593;DHT22;64447;52.140;5.602;2024-02-23T10:02:17;7.50;99.90
35593;DHT22;64447;52.140;5.602;2024-02-23T10:04:44;7.40;99.90
35593;DHT22;64447;52.140;5.602;2024-02-23T10:07:10;7.30;99.90
35593;DHT22;64447;52.140;5.602;2024-02-23T10:09:36;7.60;99.90
35593;DHT22;64447;52.140;5.602;2024-02-23T10:12:02;7.20;99.90
35593;DHT22;64447;52.140;5.602;2024-02-23T10:14:28;7.10;99.90
35593;DHT22;64447;52.140;5.602;2024-02-23T10:16:53;7.10;99.90
35593;DHT22;64447;52.140;5.602;2024-02-23T10:19:21;7.10;99.90
35593;DHT22;64447;52.140;5.602;2024-02-23T10:21:49;7.30;99.90
35593;DHT22;64447;52.140;5.602;2024-02-23T10:24:16;7.30;99.90
35593;DHT22;64447;52.140;5.602;2024-02-23T10:26:44;7.30;99.90
35593;DHT22;64447;52.140;5.602;2024-02-23T10:29:10;7.40;99.90
35593;DHT22;64447;52.140;5.602;2024-02-23T10:31:36;7.30;99.90
35593;DHT22;64447;52.140;5.602;2024-02-23T10:34:09;7.30;99.90
35593;DHT22;64447;52.140;5.602;2024-02-23T10:36:43;7.60;99.90
35593;DHT22;64447;52.140;5.602;2024-02-23T10:39:11;7.70;99.90
35593;DHT22;64447;52.140;5.602;2024-02-23T10:41:46;7.50;99.90
35593;DHT22;64447;52.140;5.602;2024-02-23T10:44:12;7.80;99.90
35593;DHT22;64447;52.140;5.602;2024-02-23T10:46:39;7.70;99.90
35593;DHT22;64447;52.140;5.602;2024-02-23T10:49:06;7.60;99.90
35593;DHT22;64447;52.140;5.602;2024-02-23T10:51:33;7.50;99.90
35593;DHT22;64447;52.140;5.602;2024-02-23T10:53:59;7.50;99.90
35593;DHT22;64447;52.140;5.602;2024-02-23T10:56:25;7.50;99.90
35593;DHT22;64447;52.140;5.602;2024-02-23T10:58:52;7.50;99.90
35593;DHT22;64447;52.140;5.602;2024-02-23T11:01:19;7.40;99.90
35593;DHT22;64447;52.140;5.602;2024-02-23T11:03:46;7.30;99.90
35593;DHT22;64447;52.140;5.602;2024-02-23T11:06:16;7.20;99.90
35593;DHT22;64447;52.140;5.602;2024-02-23T11:08:49;7.30;99.90
35593;DHT22;64447;52.140;5.602;2024-02-23T11:11:16;7.30;99.90
35593;DHT22;64447;52.140;5.602;2024-02-23T11:13:44;7.40;99.90
35593;DHT22;64447;52.140;5.602;2024-02-23T11:16:12;7.50;99.90
35593;DHT22;64447;52.140;5.602;2024-02-23T11:18:46;7.50;99.90
35593;DHT22;64447;52.140;5.602;2024-02-23T11:21:12;7.50;99.90
35593;DHT22;64447;52.140;5.602;2024-02-23T11:23:48;7.70;99.90
35593;DHT22;64447;52.140;5.602;2024-02-23T11:26:14;7.70;99.90
35593;DHT22;64447;52.140;5.602;2024-02-23T11:28:53;7.80;99.90
35593;DHT22;64447;52.140;5.602;2024-02-23T11:31:21;7.90;99.90
35593;DHT22;64447;52.140;5.602;2024-02-23T11:33:54;8.00;99.90
35593;DHT22;64447;52.140;5.602;2024-02-23T11:38:53;8.20;99.90
35593;DHT22;64447;52.140;5.602;2024-02-23T11:41:23;8.10;99.90
35593;DHT22;64447;52.140;5.602;2024-02-23T11:43:53;8.20;99.90
35593;DHT22;64447;52.140;5.602;2024-02-23T11:46:19;8.10;99.90
35593;DHT22;64447;52.140;5.602;2024-02-23T11:48:45;8.20;99.90
35593;DHT22;64447;52.140;5.602;2024-02-23T11:51:20;8.20;99.90
35593;DHT22;64447;52.140;5.602;2024-02-23T11:53:50;8.50;99.90
35593;DHT22;64447;52.140;5.602;2024-02-23T11:56:16;8.40;99.90
35593;DHT22;64447;52.140;5.602;2024-02-23T11:58:42;8.30;99.90
35593;DHT22;64447;52.140;5.602;2024-02-23T12:01:08;8.40;99.90
35593;DHT22;64447;52.140;5.602;2024-02-23T12:03:34;8.40;99.90
35593;DHT22;64447;52.140;5.602;2024-02-23T12:06:05;8.40;99.90
35593;DHT22;64447;52.140;5.602;2024-02-23T12:08:35;8.40;99.90
35593;DHT22;64447;52.140;5.602;2024-02-23T12:11:10;8.30;99.90
35593;DHT22;64447;52.140;5.602;2024-02-23T12:13:36;8.30;99.90
35593;DHT22;64447;52.140;5.602;2024-02-23T12:16:02;8.30;99.90
35593;DHT22;64447;52.140;5.602;2024-02-23T12:18:28;8.20;99.90
35593;DHT22;64447;52.140;5.602;2024-02-23T12:21:09;8.50;99.90
35593;DHT22;64447;52.140;5.602;2024-02-23T12:23:42;8.20;99.90
35593;DHT22;64447;52.140;5.602;2024-02-23T12:26:08;8.20;99.90
35593;DHT22;64447;52.140;5.602;2024-02-23T12:28:34;8.50;99.90
35593;DHT22;64447;52.140;5.602;2024-02-23T12:31:01;8.60;99.90
35593;DHT22;64447;52.140;5.602;2024-02-23T12:33:28;8.30;99.90
35593;DHT22;64447;52.140;5.602;2024-02-23T12:35:55;8.30;99.90
35593;DHT22;64447;52.140;5.602;2024-02-23T12:38:22;8.50;99.90
35593;DHT22;64447;52.140;5.602;2024-02-23T12:40:47;8.40;99.90
35593;DHT22;64447;52.140;5.602;2024-02-23T12:43:13;8.40;99.90
35593;DHT22;64447;52.140;5.602;2024-02-23T12:45:39;8.50;99.90
35593;DHT22;64447;52.140;5.602;2024-02-23T12:48:06;8.40;99.90
35593;DHT22;64447;52.140;5.602;2024-02-23T12:50:31;8.40;99.90
35593;DHT22;64447;52.140;5.602;2024-02-23T12:52:57;8.40;99.90
35593;DHT22;64447;52.140;5.602;2024-02-23T12:55:23;8.70;99.90
35593;DHT22;64447;52.140;5.602;2024-02-23T12:57:49;8.50;99.90
35593;DHT22;64447;52.140;5.602;2024-02-23T13:00:15;8.60;99.90
35593;DHT22;64447;52.140;5.602;2024-02-23T13:02:41;8.90;99.90
35593;DHT22;64447;52.140;5.602;2024-02-23T13:05:07;8.50;99.90
35593;DHT22;64447;52.140;5.602;2024-02-23T13:07:32;8.50;99.90
35593;DHT22;64447;52.140;5.602;2024-02-23T13:09:58;8.50;99.90
35593;DHT22;64447;52.140;5.602;2024-02-23T13:12:24;8.50;99.90
35593;DHT22;64447;52.140;5.602;2024-02-23T13:14:51;8.60;99.90
35593;DHT22;64447;52.140;5.602;2024-02-23T13:17:17;8.80;99.90
35593;DHT22;64447;52.140;5.602;2024-02-23T13:19:43;8.70;99.90
35593;DHT22;64447;52.140;5.602;2024-02-23T13:22:09;8.70;99.90
35593;DHT22;64447;52.140;5.602;2024-02-23T13:24:34;8.70;99.90
35593;DHT22;64447;52.140;5.602;2024-02-23T13:27:00;8.70;99.90
35593;DHT22;64447;52.140;5.602;2024-02-23T13:29:26;8.70;99.90
35593;DHT22;64447;52.140;5.602;2024-02-23T13:31:52;8.70;99.90
35593;DHT22;64447;52.140;5.602;2024-02-23T13:34:18;8.80;99.90
35593;DHT22;64447;52.140;5.602;2024-02-23T13:36:44;8.80;99.90
35593;DHT22;64447;52.140;5.602;2024-02-23T13:39:10;8.90;99.90
35593;DHT22;64447;52.140;5.602;2024-02-23T13:41:36;8.80;99.90
35593;DHT22;64447;52.140;5.602;2024-02-23T13:44:01;8.90;99.90
35593;DHT22;64447;52.140;5.602;2024-02-23T13:46:27;8.90;99.90
35593;DHT22;64447;52.140;5.602;2024-02-23T13:49:03;9.10;99.90
35593;DHT22;64447;52.140;5.602;2024-02-23T13:51:30;9.00;99.90
35593;DHT22;64447;52.140;5.602;2024-02-23T13:53:55;8.90;99.90
35593;DHT22;64447;52.140;5.602;2024-02-23T13:56:21;8.90;99.90
35593;DHT22;64447;52.140;5.602;2024-02-23T13:58:47;8.90;99.90
35593;DHT22;64447;52.140;5.602;2024-02-23T14:01:14;8.90;99.90
35593;DHT22;64447;52.140;5.602;2024-02-23T14:03:40;8.90;99.90
35593;DHT22;64447;52.140;5.602;2024-02-23T14:06:06;8.80;99.90
35593;DHT22;64447;52.140;5.602;2024-02-23T14:08:32;9.20;99.90
35593;DHT22;64447;52.140;5.602;2024-02-23T14:11:03;9.00;99.90
35593;DHT22;64447;52.140;5.602;2024-02-23T14:13:32;9.00;99.90
35593;DHT22;64447;52.140;5.602;2024-02-23T14:15:58;9.10;99.90
35593;DHT22;64447;52.140;5.602;2024-02-23T14:18:23;9.00;99.90
35593;DHT22;64447;52.140;5.602;2024-02-23T14:20:49;9.00;99.90
35593;DHT22;64447;52.140;5.602;2024-02-23T14:23:17;9.10;99.90
35593;DHT22;64447;52.140;5.602;2024-02-23T14:25:43;9.00;99.90
35593;DHT22;64447;52.140;5.602;2024-02-23T14:28:08;8.90;99.90
35593;DHT22;64447;52.140;5.602;2024-02-23T14:30:35;9.00;99.90
35593;DHT22;64447;52.140;5.602;2024-02-23T14:33:01;9.40;99.90
35593;DHT22;64447;52.140;5.602;2024-02-23T14:35:27;9.20;99.90
35593;DHT22;64447;52.140;5.602;2024-02-23T14:37:52;9.00;99.90
35593;DHT22;64447;52.140;5.602;2024-02-23T14:40:18;9.10;99.90
35593;DHT22;64447;52.140;5.602;2024-02-23T14:42:43;9.20;99.90
35593;DHT22;64447;52.140;5.602;2024-02-23T14:45:09;9.10;99.90
35593;DHT22;64447;52.140;5.602;2024-02-23T14:47:37;9.20;99.90
35593;DHT22;64447;52.140;5.602;2024-02-23T14:50:03;9.20;99.90
35593;DHT22;64447;52.140;5.602;2024-02-23T14:52:29;9.20;99.90
35593;DHT22;64447;52.140;5.602;2024-02-23T14:54:54;9.50;99.90
35593;DHT22;64447;52.140;5.602;2024-02-23T14:57:20;9.40;99.90
35593;DHT22;64447;52.140;5.602;2024-02-23T14:59:47;9.50;99.90
35593;DHT22;64447;52.140;5.602;2024-02-23T15:02:22;9.50;99.90
35593;DHT22;64447;52.140;5.602;2024-02-23T15:04:48;9.60;99.90
35593;DHT22;64447;52.140;5.602;2024-02-23T15:07:14;9.60;99.90
35593;DHT22;64447;52.140;5.602;2024-02-23T15:09:40;9.60;99.90
35593;DHT22;64447;52.140;5.602;2024-02-23T15:12:06;9.70;99.90
35593;DHT22;64447;52.140;5.602;2024-02-23T15:14:32;9.70;99.90
35593;DHT22;64447;52.140;5.602;2024-02-23T15:16:57;9.70;99.90
35593;DHT22;64447;52.140;5.602;2024-02-23T15:19:23;9.70;99.90
35593;DHT22;64447;52.140;5.602;2024-02-23T15:21:49;9.60;99.90
35593;DHT22;64447;52.140;5.602;2024-02-23T15:24:18;9.60;99.90
35593;DHT22;64447;52.140;5.602;2024-02-23T15:26:49;9.60;99.90
35593;DHT22;64447;52.140;5.602;2024-02-23T15:29:15;9.60;99.90
35593;DHT22;64447;52.140;5.602;2024-02-23T15:31:40;9.60;99.90
35593;DHT22;64447;52.140;5.602;2024-02-23T15:34:08;9.50;99.90
35593;DHT22;64447;52.140;5.602;2024-02-23T15:36:33;9.40;99.90
35593;DHT22;64447;52.140;5.602;2024-02-23T15:39:00;9.30;99.90
35593;DHT22;64447;52.140;5.602;2024-02-23T15:41:32;9.30;99.90